Time;durP1;ratioP1;P1;durP2;ratioP2;P2;SDS_P1;SDS_P2;PMS_P1;PMS_P2;Temp;Humidity;BMP_temperature;BMP_pressure;BME280_temperature;BME280_humidity;BME280_pressure;Samples;Min_cycle;Max_cycle;Signal;HPM_P1;HPM_P2
2022/10/07 00:01:21;;;;;;;20.30;18.70;;;13.10;86.40;;;;;;4955895;28;20404;-77
2022/10/07 00:03:49;;;;;;;19.67;18.10;;;13.00;87.00;;;;;;4952606;28;20099;-77
2022/10/07 00:06:19;;;;;;;19.25;17.48;;;13.00;87.20;;;;;;4936526;29;20035;-77
2022/10/07 00:08:46;;;;;;;19.20;17.52;;;12.90;87.30;;;;;;4959624;28;20043;-77
2022/10/07 00:11:14;;;;;;;18.23;16.80;;;12.90;87.40;;;;;;4936650;29;20032;-78
2022/10/07 00:13:41;;;;;;;18.67;17.08;;;12.90;87.30;;;;;;4936513;29;20059;-77
2022/10/07 00:16:12;;;;;;;18.23;16.83;;;12.90;87.10;;;;;;4936766;28;20027;-77
2022/10/07 00:18:38;;;;;;;18.10;16.92;;;12.90;87.10;;;;;;4945594;29;20031;-77
2022/10/07 00:21:10;;;;;;;17.60;16.50;;;12.80;87.00;;;;;;4956020;28;20043;-78
2022/10/07 00:23:36;;;;;;;18.63;17.38;;;12.90;87.10;;;;;;4956325;28;20034;-77
2022/10/07 00:26:04;;;;;;;18.33;16.92;;;12.80;86.80;;;;;;4940425;28;20028;-77
2022/10/07 00:28:31;;;;;;;18.08;16.63;;;12.80;86.80;;;;;;4951878;29;20031;-77
2022/10/07 00:30:58;;;;;;;18.67;17.15;;;12.80;86.80;;;;;;4939436;28;20031;-78
2022/10/07 00:33:24;;;;;;;19.35;18.02;;;12.80;87.60;;;;;;4956296;29;20062;-78
2022/10/07 00:35:51;;;;;;;17.83;16.63;;;12.70;86.90;;;;;;4971957;28;20046;-78
2022/10/07 00:38:17;;;;;;;18.90;17.40;;;12.70;87.00;;;;;;4956420;29;20031;-77
2022/10/07 00:40:43;;;;;;;18.40;17.10;;;12.70;87.20;;;;;;4957198;28;20463;-77
2022/10/07 00:43:25;;;;;;;19.00;17.60;;;12.60;87.30;;;;;;4956172;28;20035;-77
2022/10/07 00:45:52;;;;;;;18.60;17.30;;;12.60;87.10;;;;;;4971085;28;20038;-77
2022/10/07 00:48:22;;;;;;;19.08;17.35;;;12.70;87.10;;;;;;4965329;28;20032;-77
2022/10/07 00:50:49;;;;;;;17.98;16.60;;;12.60;87.30;;;;;;4952139;28;20054;-77
2022/10/07 00:53:15;;;;;;;17.73;16.55;;;12.60;87.30;;;;;;4951791;29;20039;-77
2022/10/07 00:55:41;;;;;;;16.75;15.65;;;12.60;87.20;;;;;;4952613;28;20058;-77
2022/10/07 00:58:08;;;;;;;17.55;16.48;;;12.50;87.10;;;;;;4936621;29;20043;-78
2022/10/07 01:00:38;;;;;;;17.73;16.33;;;12.50;87.30;;;;;;4956747;28;20042;-78
2022/10/07 01:03:04;;;;;;;17.38;16.27;;;12.50;87.20;;;;;;4963685;28;20024;-78
2022/10/07 01:05:30;;;;;;;16.65;15.65;;;12.50;87.00;;;;;;4971647;28;20413;-78
2022/10/07 01:07:56;;;;;;;16.65;15.60;;;12.50;86.90;;;;;;4968255;28;20038;-78
2022/10/07 01:10:23;;;;;;;16.33;15.23;;;12.50;87.00;;;;;;4959846;28;20032;-78
2022/10/07 01:13:06;;;;;;;16.45;15.38;;;12.50;87.00;;;;;;4936089;29;20046;-78
2022/10/07 01:15:42;;;;;;;16.55;15.35;;;12.50;86.90;;;;;;4936838;28;20040;-77
2022/10/07 01:18:41;;;;;;;16.30;15.20;;;12.50;86.90;;;;;;4935367;29;20040;-78
2022/10/07 01:21:17;;;;;;;15.60;14.50;;;12.40;87.00;;;;;;4968726;28;20031;-77
2022/10/07 01:24:02;;;;;;;15.60;14.70;;;12.40;87.00;;;;;;4969246;28;20031;-77
2022/10/07 01:26:46;;;;;;;15.45;14.50;;;12.40;87.00;;;;;;4950814;29;20047;-77
2022/10/07 01:29:37;;;;;;;16.95;15.85;;;12.40;87.00;;;;;;4955758;29;20031;-77
2022/10/07 01:32:08;;;;;;;17.15;15.95;;;12.30;87.30;;;;;;4935870;28;20051;-78
2022/10/07 01:34:34;;;;;;;17.17;15.90;;;12.20;87.70;;;;;;4950787;28;20042;-78
2022/10/07 01:37:01;;;;;;;15.73;14.88;;;12.20;87.70;;;;;;4970526;28;20035;-77
2022/10/07 01:39:30;;;;;;;16.00;15.00;;;12.20;87.70;;;;;;4954210;28;20376;-77
2022/10/07 01:41:56;;;;;;;16.30;15.30;;;12.10;87.70;;;;;;4937979;29;20032;-77
2022/10/07 01:44:25;;;;;;;14.88;13.98;;;12.20;87.60;;;;;;4951601;28;20397;-77
2022/10/07 01:46:51;;;;;;;15.80;14.63;;;12.20;87.40;;;;;;4954918;28;20031;-77
2022/10/07 01:49:17;;;;;;;15.98;14.90;;;12.30;87.10;;;;;;4943877;28;20048;-77
2022/10/07 01:51:43;;;;;;;17.20;15.23;;;12.20;86.90;;;;;;4951897;28;20027;-77
2022/10/07 01:54:18;;;;;;;16.58;15.25;;;12.20;87.00;;;;;;4965960;28;20058;-77
2022/10/07 01:56:47;;;;;;;16.35;15.35;;;12.10;86.90;;;;;;4947712;29;20039;-77
2022/10/07 01:59:22;;;;;;;15.95;14.73;;;12.10;87.20;;;;;;4935127;29;20046;-77
2022/10/07 02:01:48;;;;;;;16.95;15.20;;;12.00;87.40;;;;;;4947392;28;20385;-77
2022/10/07 02:04:14;;;;;;;16.05;14.95;;;12.00;87.50;;;;;;4958780;28;20500;-77
2022/10/07 02:07:02;;;;;;;16.20;14.70;;;11.90;87.50;;;;;;4946685;29;20499;-78
2022/10/07 02:09:38;;;;;;;16.95;15.40;;;11.90;87.40;;;;;;4958677;28;20040;-79
2022/10/07 02:12:17;;;;;;;16.17;14.98;;;11.90;87.40;;;;;;4947420;28;20054;-78
2022/10/07 02:14:48;;;;;;;16.15;14.95;;;11.90;87.30;;;;;;4934217;29;20035;-78
2022/10/07 02:17:19;;;;;;;16.80;15.57;;;11.80;87.50;;;;;;4947212;28;20043;-78
2022/10/07 02:19:48;;;;;;;16.83;15.73;;;11.90;87.30;;;;;;4935087;29;20050;-78
2022/10/07 02:22:15;;;;;;;16.88;15.80;;;11.80;87.00;;;;;;4964748;28;20050;-78
2022/10/07 02:24:41;;;;;;;16.45;15.48;;;11.80;87.20;;;;;;4945103;29;20043;-78
2022/10/07 02:27:09;;;;;;;16.48;15.18;;;11.80;87.30;;;;;;4933135;29;20417;-78
2022/10/07 02:29:36;;;;;;;15.93;15.00;;;11.70;87.10;;;;;;4933015;29;20036;-78
2022/10/07 02:32:04;;;;;;;15.32;14.40;;;11.70;87.10;;;;;;4938819;28;20071;-78
2022/10/07 02:34:30;;;;;;;15.80;14.70;;;11.70;87.20;;;;;;4945760;28;20487;-78
2022/10/07 02:36:59;;;;;;;15.77;14.48;;;11.60;87.10;;;;;;4957047;28;20037;-77
2022/10/07 02:39:27;;;;;;;15.90;14.80;;;11.60;87.30;;;;;;4972142;28;20043;-77
2022/10/07 02:42:14;;;;;;;15.50;14.23;;;11.60;87.30;;;;;;4979365;28;20043;-77
2022/10/07 02:44:50;;;;;;;16.40;15.35;;;11.60;87.20;;;;;;4954605;28;20033;-77
2022/10/07 02:47:23;;;;;;;16.30;15.10;;;11.60;87.10;;;;;;4953120;28;20039;-77
2022/10/07 02:49:52;;;;;;;15.95;15.05;;;11.60;87.00;;;;;;4953441;29;20034;-77
2022/10/07 02:52:18;;;;;;;16.25;15.05;;;11.60;86.90;;;;;;4933332;29;20031;-77
2022/10/07 02:54:46;;;;;;;15.27;14.43;;;11.50;86.70;;;;;;4929032;29;20055;-78
2022/10/07 02:57:13;;;;;;;15.38;14.23;;;11.50;87.00;;;;;;4943522;29;20038;-77
2022/10/07 02:59:39;;;;;;;15.98;14.88;;;11.50;87.10;;;;;;4940512;28;20381;-79
2022/10/07 03:02:07;;;;;;;15.25;14.20;;;11.50;87.10;;;;;;4948212;28;20031;-78
2022/10/07 03:04:33;;;;;;;16.85;15.30;;;11.50;87.10;;;;;;4966254;28;20042;-79
2022/10/07 03:07:00;;;;;;;16.00;14.70;;;11.50;86.90;;;;;;4973036;28;20039;-78
2022/10/07 03:09:26;;;;;;;15.05;14.13;;;11.50;86.90;;;;;;4955240;28;20042;-78
2022/10/07 03:11:52;;;;;;;15.68;14.77;;;11.50;86.70;;;;;;4955147;28;20024;-78
2022/10/07 03:14:18;;;;;;;15.80;14.70;;;11.50;86.70;;;;;;4948505;28;20058;-79
2022/10/07 03:16:45;;;;;;;18.02;16.73;;;11.50;86.60;;;;;;4952576;28;20031;-78
2022/10/07 03:19:11;;;;;;;17.27;16.15;;;11.40;86.60;;;;;;4966091;28;20062;-79
2022/10/07 03:21:39;;;;;;;16.23;15.15;;;11.30;86.60;;;;;;4942280;29;20036;-78
2022/10/07 03:24:05;;;;;;;15.55;14.30;;;11.30;86.90;;;;;;4935175;29;20043;-78
2022/10/07 03:26:32;;;;;;;15.30;14.20;;;11.30;87.10;;;;;;4952562;29;20035;-78
2022/10/07 03:28:59;;;;;;;16.52;15.05;;;11.20;87.20;;;;;;4968987;28;20042;-79
2022/10/07 03:31:26;;;;;;;15.05;14.13;;;11.20;87.10;;;;;;4965088;28;20035;-78
2022/10/07 03:33:54;;;;;;;16.50;15.10;;;11.20;87.10;;;;;;4947024;28;20403;-78
2022/10/07 03:36:21;;;;;;;15.48;14.40;;;11.20;87.30;;;;;;4978257;28;20046;-78
2022/10/07 03:38:47;;;;;;;15.13;13.88;;;11.20;87.30;;;;;;4947757;29;20036;-77
2022/10/07 03:41:14;;;;;;;14.60;13.35;;;11.10;87.30;;;;;;4937280;29;20032;-78
2022/10/07 03:43:40;;;;;;;14.45;13.27;;;11.10;87.40;;;;;;4949851;29;20046;-78
2022/10/07 03:46:06;;;;;;;14.30;13.38;;;11.10;87.60;;;;;;4972585;28;20029;-79
2022/10/07 03:48:32;;;;;;;14.32;13.23;;;11.00;87.60;;;;;;4957497;28;20373;-78
2022/10/07 03:50:58;;;;;;;15.13;14.13;;;11.10;87.60;;;;;;4957935;29;20031;-78
2022/10/07 03:53:25;;;;;;;14.30;13.30;;;11.10;87.50;;;;;;4968530;28;20051;-78
2022/10/07 03:55:52;;;;;;;16.20;15.15;;;11.10;87.50;;;;;;4939501;28;20143;-78
2022/10/07 03:58:18;;;;;;;15.80;14.77;;;11.10;87.10;;;;;;4957714;28;20047;-78
2022/10/07 04:00:44;;;;;;;14.20;13.20;;;11.10;87.20;;;;;;4937966;28;20031;-79
2022/10/07 04:03:10;;;;;;;14.80;13.55;;;11.00;88.10;;;;;;4937953;29;20038;-78
2022/10/07 04:05:36;;;;;;;15.23;13.95;;;11.00;87.40;;;;;;4941888;28;20126;-78
2022/10/07 04:08:03;;;;;;;14.20;13.27;;;10.90;87.60;;;;;;4954246;28;20036;-77
2022/10/07 04:10:29;;;;;;;13.63;12.82;;;10.90;87.70;;;;;;4956161;28;20028;-77
2022/10/07 04:12:55;;;;;;;14.60;13.70;;;10.90;87.70;;;;;;4954503;28;20485;-79
2022/10/07 04:15:22;;;;;;;14.15;13.25;;;10.90;87.70;;;;;;4936352;28;20047;-79
2022/10/07 04:17:48;;;;;;;14.60;13.70;;;10.90;87.60;;;;;;4937941;29;20404;-78
2022/10/07 04:20:15;;;;;;;14.50;13.60;;;10.90;87.50;;;;;;4953293;29;20492;-78
2022/10/07 04:22:41;;;;;;;14.60;13.68;;;10.90;87.40;;;;;;4937874;29;20056;-79
2022/10/07 04:27:53;;;;;;;15.32;14.43;;;10.80;87.20;;;;;;4943960;28;20054;-79
2022/10/07 04:30:20;;;;;;;15.73;14.85;;;10.80;87.50;;;;;;4955395;28;20034;-79
2022/10/07 04:32:48;;;;;;;14.75;13.73;;;10.80;87.50;;;;;;4953334;29;20066;-76
2022/10/07 04:35:14;;;;;;;14.18;13.38;;;10.70;87.70;;;;;;4939930;29;20039;-77
2022/10/07 04:37:40;;;;;;;13.88;12.98;;;10.70;88.50;;;;;;4952781;28;20031;-77
2022/10/07 04:40:07;;;;;;;14.68;13.75;;;10.70;87.90;;;;;;4941902;29;20036;-77
2022/10/07 04:45:18;;;;;;;54.17;41.58;;;10.70;88.60;;;;;;4949139;28;20195;-81
2022/10/07 04:47:45;;;;;;;55.00;42.97;;;10.60;87.70;;;;;;4949477;28;20023;-79
2022/10/07 04:50:11;;;;;;;36.22;31.05;;;10.60;88.00;;;;;;4952454;28;20469;-78
2022/10/07 04:52:43;;;;;;;24.77;22.42;;;10.50;87.90;;;;;;4938908;29;20032;-79
2022/10/07 04:55:13;;;;;;;19.65;18.08;;;10.50;88.10;;;;;;4937523;29;20050;-78
2022/10/07 04:57:39;;;;;;;15.60;14.52;;;10.50;88.00;;;;;;4937517;29;20043;-77
2022/10/07 05:00:07;;;;;;;16.90;15.55;;;10.50;87.80;;;;;;4951457;28;20036;-77
2022/10/07 05:02:33;;;;;;;15.48;14.48;;;10.50;87.70;;;;;;4964388;28;20032;-78
2022/10/07 05:04:59;;;;;;;15.75;14.57;;;10.50;87.70;;;;;;4949640;28;20039;-77
2022/10/07 05:07:25;;;;;;;17.33;16.10;;;10.50;87.60;;;;;;4954791;29;20031;-78
2022/10/07 05:09:51;;;;;;;16.88;15.77;;;10.50;87.50;;;;;;4962696;28;20061;-77
2022/10/07 05:12:18;;;;;;;17.30;16.30;;;10.50;87.50;;;;;;4948613;29;20500;-78
2022/10/07 05:14:44;;;;;;;16.92;16.02;;;10.40;87.20;;;;;;4948506;28;20047;-77
2022/10/07 05:17:11;;;;;;;14.90;14.10;;;10.40;87.30;;;;;;4953041;28;20039;-78
2022/10/07 05:19:37;;;;;;;16.20;15.15;;;10.40;87.30;;;;;;4956633;28;20048;-77
2022/10/07 05:22:03;;;;;;;17.42;16.02;;;10.40;87.30;;;;;;4956443;28;20031;-77
2022/10/07 05:24:29;;;;;;;15.55;14.65;;;10.40;87.50;;;;;;4969179;28;20043;-78
2022/10/07 05:26:56;;;;;;;16.80;15.80;;;10.40;87.30;;;;;;4938965;29;20031;-78
2022/10/07 05:29:22;;;;;;;14.82;13.93;;;10.40;87.20;;;;;;4955137;29;20035;-78
2022/10/07 05:31:49;;;;;;;16.13;15.18;;;10.40;87.30;;;;;;4969830;28;20062;-78
2022/10/07 05:34:15;;;;;;;13.82;12.90;;;10.30;87.50;;;;;;4970613;28;20039;-79
2022/10/07 05:36:42;;;;;;;14.30;13.48;;;10.20;87.60;;;;;;4950791;28;20038;-79
2022/10/07 05:39:09;;;;;;;14.18;13.18;;;10.20;87.90;;;;;;4941687;29;20046;-78
2022/10/07 05:41:35;;;;;;;13.75;12.95;;;10.10;88.10;;;;;;4936386;29;20043;-78
2022/10/07 05:44:01;;;;;;;13.80;12.90;;;10.10;88.10;;;;;;4936199;29;20035;-78
2022/10/07 05:46:27;;;;;;;14.45;13.63;;;10.10;88.10;;;;;;4943707;28;20400;-78
2022/10/07 05:48:53;;;;;;;13.68;12.75;;;10.00;88.00;;;;;;4954281;28;20039;-79
2022/10/07 05:51:21;;;;;;;13.48;12.68;;;10.10;88.10;;;;;;4938452;29;20035;-79
2022/10/07 05:53:47;;;;;;;14.00;13.10;;;10.10;88.10;;;;;;4934872;29;20401;-78
2022/10/07 05:56:14;;;;;;;14.32;13.43;;;10.10;87.90;;;;;;4935279;29;20054;-78
2022/10/07 05:58:41;;;;;;;13.93;12.73;;;10.00;88.10;;;;;;4953315;28;20047;-78
2022/10/07 06:01:11;;;;;;;13.75;12.85;;;10.00;88.40;;;;;;4969404;28;20035;-78
2022/10/07 06:03:38;;;;;;;14.48;13.32;;;9.90;88.60;;;;;;4953190;28;20043;-77
2022/10/07 06:06:04;;;;;;;14.27;13.38;;;9.90;88.80;;;;;;4955263;28;20034;-77
2022/10/07 06:08:30;;;;;;;13.13;12.32;;;10.00;88.40;;;;;;4971107;28;20039;-79
2022/10/07 06:13:51;;;;;;;14.38;13.30;;;9.90;88.70;;;;;;4967098;28;20054;-78
2022/10/07 06:16:18;;;;;;;26.92;22.35;;;9.90;88.50;;;;;;4970988;28;20038;-79
2022/10/07 06:18:44;;;;;;;15.60;14.40;;;10.00;88.40;;;;;;4958718;28;20039;-87
2022/10/07 06:21:11;;;;;;;14.38;13.45;;;10.00;88.30;;;;;;4970305;28;20058;-78
2022/10/07 06:23:37;;;;;;;17.50;16.50;;;10.00;88.20;;;;;;4955466;28;20055;-78
2022/10/07 06:26:07;;;;;;;18.42;17.38;;;10.00;88.80;;;;;;4958397;28;20046;-78
2022/10/07 06:28:37;;;;;;;19.88;18.60;;;10.00;88.00;;;;;;4979255;28;20035;-86
2022/10/07 06:31:07;;;;;;;18.80;17.75;;;10.00;87.80;;;;;;4961146;28;20409;-85
2022/10/07 06:33:33;;;;;;;17.00;16.10;;;9.90;87.70;;;;;;4965436;28;20036;-84
2022/10/07 06:36:03;;;;;;;15.43;14.45;;;9.80;87.80;;;;;;4951155;28;20046;-83
2022/10/07 06:38:30;;;;;;;17.58;16.38;;;9.80;88.20;;;;;;4954124;28;20027;-83
2022/10/07 06:41:00;;;;;;;16.60;15.30;;;9.70;88.50;;;;;;4953376;28;20027;-83
2022/10/07 06:43:27;;;;;;;15.95;14.85;;;9.80;88.70;;;;;;4961357;28;20031;-87
2022/10/07 06:45:57;;;;;;;14.23;13.32;;;9.80;88.50;;;;;;4953167;28;20035;-86
2022/10/07 06:48:24;;;;;;;13.45;12.65;;;9.80;88.70;;;;;;4957210;28;20031;-85
2022/10/07 06:50:54;;;;;;;13.23;12.52;;;9.80;88.90;;;;;;4935472;29;20039;-81
2022/10/07 06:53:20;;;;;;;13.13;12.35;;;9.80;89.10;;;;;;4934752;29;20047;-79
2022/10/07 06:55:50;;;;;;;13.77;12.98;;;9.80;89.30;;;;;;4932532;29;20057;-84
2022/10/07 06:58:20;;;;;;;13.80;13.00;;;9.70;89.60;;;;;;4960617;28;20027;-82
2022/10/07 07:00:48;;;;;;;27.50;24.95;;;9.80;89.80;;;;;;4935767;28;20043;-82
2022/10/07 07:03:15;;;;;;;16.08;14.95;;;9.80;90.00;;;;;;4935497;29;20038;-87
2022/10/07 07:05:41;;;;;;;14.35;13.35;;;9.80;90.20;;;;;;4937327;29;20050;-83
2022/10/07 07:08:07;;;;;;;14.13;13.23;;;9.80;90.30;;;;;;4930327;29;20385;-79
2022/10/07 07:10:37;;;;;;;16.35;15.25;;;9.90;90.30;;;;;;4952328;28;20043;-78
2022/10/07 07:13:06;;;;;;;16.75;15.70;;;9.90;90.50;;;;;;4950234;28;20477;-80
2022/10/07 07:15:35;;;;;;;18.25;17.08;;;10.00;90.80;;;;;;4952848;28;20046;-76
2022/10/07 07:18:02;;;;;;;16.35;15.45;;;10.10;91.20;;;;;;4952752;28;20032;-75
2022/10/07 07:20:34;;;;;;;23.20;22.00;;;10.60;92.10;;;;;;4940536;29;20101;-75
2022/10/07 07:23:01;;;;;;;19.85;18.73;;;11.20;91.50;;;;;;4935368;29;20046;-77
2022/10/07 07:25:27;;;;;;;20.15;18.73;;;11.70;90.80;;;;;;4948901;28;20040;-76
2022/10/07 07:27:54;;;;;;;18.77;17.33;;;12.20;90.30;;;;;;4962113;28;20038;-77
2022/10/07 07:30:22;;;;;;;19.77;18.63;;;12.60;89.40;;;;;;4931795;28;20618;-77
2022/10/07 07:32:49;;;;;;;19.00;17.90;;;13.00;88.20;;;;;;4951718;28;20039;-90
2022/10/07 07:35:15;;;;;;;21.17;19.88;;;13.30;90.00;;;;;;4969140;28;20408;-87
2022/10/07 07:37:41;;;;;;;24.80;23.42;;;13.80;89.20;;;;;;4964494;28;20028;-86
2022/10/07 07:40:08;;;;;;;25.48;24.08;;;14.20;87.20;;;;;;4938295;28;20051;-87
2022/10/07 07:42:36;;;;;;;34.35;32.30;;;14.60;85.70;;;;;;4946113;28;20378;-88
2022/10/07 07:45:02;;;;;;;32.90;31.00;;;15.00;84.70;;;;;;4957526;28;20031;-83
2022/10/07 07:47:28;;;;;;;36.97;34.88;;;15.30;83.90;;;;;;4961486;28;20046;-86
2022/10/07 07:49:54;;;;;;;34.13;32.22;;;15.60;83.10;;;;;;4952070;29;20046;-86
2022/10/07 07:52:21;;;;;;;38.85;36.65;;;15.90;79.90;;;;;;4951093;29;20077;-89
2022/10/07 07:54:47;;;;;;;36.60;34.30;;;16.10;80.30;;;;;;4965171;28;20101;-76
2022/10/07 07:57:13;;;;;;;37.85;35.50;;;16.40;79.00;;;;;;4952860;28;20054;-76
2022/10/07 07:59:39;;;;;;;34.60;32.40;;;16.60;77.00;;;;;;4946548;28;20039;-75
2022/10/07 08:02:06;;;;;;;33.35;31.25;;;16.80;76.00;;;;;;4934119;28;20039;-76
2022/10/07 08:04:32;;;;;;;35.25;33.22;;;16.90;75.30;;;;;;4946737;28;20031;-75
2022/10/07 08:06:58;;;;;;;36.47;33.88;;;17.10;74.70;;;;;;4947588;28;20055;-76
2022/10/07 08:09:25;;;;;;;39.92;37.22;;;17.10;74.40;;;;;;4945841;28;20046;-76
2022/10/07 08:11:51;;;;;;;43.60;40.88;;;17.00;74.70;;;;;;4960457;28;20032;-76
2022/10/07 08:14:17;;;;;;;45.28;42.75;;;17.00;74.90;;;;;;4952411;28;20392;-76
2022/10/07 08:16:43;;;;;;;45.92;43.20;;;17.00;74.50;;;;;;4953329;28;20058;-76
2022/10/07 08:19:11;;;;;;;44.70;41.75;;;16.90;74.40;;;;;;4952545;29;20051;-76
2022/10/07 08:21:37;;;;;;;45.22;42.45;;;16.90;74.90;;;;;;4952528;28;20027;-76
2022/10/07 08:24:04;;;;;;;46.95;43.97;;;16.80;75.30;;;;;;4949192;28;20036;-76
2022/10/07 08:26:31;;;;;;;45.33;42.88;;;16.80;75.40;;;;;;4935589;29;20385;-76
2022/10/07 08:28:58;;;;;;;46.15;42.95;;;17.00;75.40;;;;;;4938128;29;20027;-76
2022/10/07 08:31:27;;;;;;;45.35;42.65;;;17.10;75.30;;;;;;4952119;28;20031;-76
2022/10/07 08:33:55;;;;;;;40.53;37.90;;;17.10;74.30;;;;;;4942647;29;20058;-76
2022/10/07 08:36:22;;;;;;;45.47;42.30;;;16.80;74.90;;;;;;4936910;29;20028;-76
2022/10/07 08:38:48;;;;;;;44.92;41.75;;;17.00;74.80;;;;;;4936516;29;20373;-76
2022/10/07 08:41:32;;;;;;;46.55;43.55;;;17.00;74.90;;;;;;4936138;29;20039;-76
2022/10/07 08:44:16;;;;;;;43.55;40.65;;;17.00;74.70;;;;;;4938835;29;20036;-75
2022/10/07 08:46:54;;;;;;;41.08;38.33;;;17.10;74.30;;;;;;4937686;28;20035;-76
2022/10/07 08:49:48;;;;;;;42.95;40.13;;;16.70;73.50;;;;;;4936731;29;20027;-76
2022/10/07 08:52:46;;;;;;;38.53;35.65;;;16.70;75.10;;;;;;4928846;29;20039;-76
2022/10/07 08:55:29;;;;;;;39.63;36.58;;;16.70;75.30;;;;;;4932282;29;20051;-76
2022/10/07 08:58:21;;;;;;;41.58;38.50;;;16.70;74.70;;;;;;4947838;28;20035;-76
2022/10/07 09:00:54;;;;;;;37.28;34.17;;;16.60;74.80;;;;;;4929527;29;20529;-76
2022/10/07 09:03:33;;;;;;;37.30;34.50;;;16.40;75.00;;;;;;4932456;29;20043;-76
2022/10/07 09:05:59;;;;;;;38.65;35.45;;;16.50;76.00;;;;;;4915835;29;20036;-76
2022/10/07 09:08:29;;;;;;;38.97;36.40;;;16.60;76.00;;;;;;4919640;29;20039;-76
2022/10/07 09:10:58;;;;;;;42.92;40.08;;;16.70;75.60;;;;;;4952788;29;20027;-76
2022/10/07 09:13:32;;;;;;;39.50;36.30;;;16.80;75.30;;;;;;4942871;29;20497;-83
2022/10/07 09:16:03;;;;;;;40.85;37.85;;;16.80;77.30;;;;;;4931016;29;20425;-83
2022/10/07 09:18:38;;;;;;;46.40;43.35;;;16.90;77.30;;;;;;4934427;29;20403;-76
2022/10/07 09:21:10;;;;;;;44.97;41.72;;;17.00;75.40;;;;;;4934661;29;20036;-77
2022/10/07 09:23:36;;;;;;;42.58;39.08;;;16.80;74.90;;;;;;4934409;29;20024;-75
2022/10/07 09:26:15;;;;;;;40.30;37.30;;;16.80;75.50;;;;;;4934776;29;20050;-76
2022/10/07 09:28:41;;;;;;;42.70;39.15;;;16.90;76.60;;;;;;4930576;29;20056;-76
2022/10/07 09:31:11;;;;;;;42.67;39.45;;;17.00;75.50;;;;;;4915316;29;20043;-76
2022/10/07 09:33:41;;;;;;;45.10;41.47;;;16.90;75.30;;;;;;4922140;29;20409;-76
2022/10/07 09:36:09;;;;;;;37.58;34.70;;;17.00;75.40;;;;;;4934497;29;20036;-76
2022/10/07 09:38:43;;;;;;;42.22;38.97;;;17.10;75.70;;;;;;4961650;28;20046;-76
2022/10/07 09:41:15;;;;;;;39.83;36.85;;;17.10;75.20;;;;;;4970257;28;20473;-75
2022/10/07 09:44:00;;;;;;;38.33;35.60;;;16.90;75.20;;;;;;4956030;28;20470;-76
2022/10/07 09:46:41;;;;;;;40.38;37.67;;;16.90;75.50;;;;;;4970019;28;20039;-76
2022/10/07 09:49:27;;;;;;;40.03;36.70;;;16.80;75.20;;;;;;4970178;28;20435;-75
2022/10/07 09:52:05;;;;;;;36.75;33.97;;;16.90;74.70;;;;;;4968569;28;20380;-76
2022/10/07 09:54:33;;;;;;;40.03;37.40;;;16.90;75.20;;;;;;4955921;28;20039;-76
2022/10/07 09:57:00;;;;;;;38.67;35.95;;;17.00;75.00;;;;;;4963736;28;20460;-76
2022/10/07 09:59:31;;;;;;;38.85;35.90;;;17.10;74.50;;;;;;4935268;29;20425;-75
2022/10/07 10:01:57;;;;;;;;;;;17.10;74.80;;;;;;4935382;28;20032;-76
2022/10/07 10:04:30;;;;;;;34.28;31.52;;;17.10;74.60;;;;;;4934580;29;19907;-77
2022/10/07 10:07:00;;;;;;;36.30;33.58;;;17.00;74.90;;;;;;4935101;29;20043;-75
2022/10/07 10:09:26;;;;;;;37.38;34.63;;;17.10;75.30;;;;;;4947378;28;20498;-76
2022/10/07 10:12:12;;;;;;;39.30;36.45;;;17.10;74.90;;;;;;4973525;28;20046;-75
2022/10/07 10:14:48;;;;;;;40.28;37.15;;;17.00;74.50;;;;;;4973378;28;20051;-76
2022/10/07 10:17:22;;;;;;;38.90;36.33;;;17.10;74.50;;;;;;4970915;28;20499;-76
2022/10/07 10:19:48;;;;;;;44.83;41.55;;;17.20;74.10;;;;;;4972861;28;20039;-76
2022/10/07 10:22:25;;;;;;;44.35;41.63;;;17.30;73.80;;;;;;4973030;28;20134;-76
2022/10/07 10:28:06;;;;;;;48.72;45.28;;;17.50;73.80;;;;;;4959522;28;20042;-76
2022/10/07 10:30:32;;;;;;;49.90;46.67;;;17.60;72.10;;;;;;4952802;28;20396;-76
2022/10/07 10:33:05;;;;;;;50.13;46.70;;;17.70;73.00;;;;;;4952448;28;20162;-76
2022/10/07 10:35:31;;;;;;;49.80;46.42;;;17.70;70.70;;;;;;4968106;28;20055;-76
2022/10/07 10:37:58;;;;;;;47.92;44.67;;;17.70;70.80;;;;;;4969210;28;20035;-75
2022/10/07 10:40:47;;;;;;;65.63;61.50;;;17.70;71.40;;;;;;4954836;28;20480;-76
2022/10/07 10:43:20;;;;;;;40.67;37.70;;;17.70;72.10;;;;;;4967026;28;20384;-76
2022/10/07 10:45:55;;;;;;;45.70;42.70;;;17.90;71.10;;;;;;4953459;28;20027;-76
2022/10/07 10:48:28;;;;;;;35.85;33.33;;;17.90;68.50;;;;;;4954056;29;20230;-76
2022/10/07 10:51:20;;;;;;;26.55;24.73;;;17.90;67.70;;;;;;4969032;28;20031;-76
2022/10/07 10:53:58;;;;;;;31.27;28.88;;;18.00;67.10;;;;;;4968540;28;20040;-76
2022/10/07 10:56:49;;;;;;;27.30;24.70;;;18.10;68.90;;;;;;4967662;28;20047;-76
2022/10/07 10:59:25;;;;;;;23.58;22.00;;;18.20;68.40;;;;;;4968695;28;20043;-76
2022/10/07 11:02:28;;;;;;;24.52;22.52;;;18.30;67.70;;;;;;4952205;28;20042;-76
2022/10/07 11:04:58;;;;;;;24.92;22.80;;;18.40;66.00;;;;;;4968765;28;20050;-76
2022/10/07 11:07:32;;;;;;;25.23;23.15;;;18.40;67.30;;;;;;4937419;28;20027;-76
2022/10/07 11:10:06;;;;;;;23.67;22.08;;;18.50;66.90;;;;;;4962815;28;20361;-76
2022/10/07 11:12:38;;;;;;;25.83;24.02;;;18.60;67.30;;;;;;4972962;28;20027;-76
2022/10/07 11:15:31;;;;;;;29.83;27.55;;;18.70;66.20;;;;;;4971796;28;20492;-77
2022/10/07 11:18:00;;;;;;;23.58;21.73;;;18.80;67.40;;;;;;4973825;28;20038;-76
2022/10/07 11:20:34;;;;;;;23.70;21.60;;;18.90;66.50;;;;;;4971840;28;20034;-75
2022/10/07 11:23:20;;;;;;;22.98;21.25;;;18.90;63.70;;;;;;4956335;28;20099;-76
2022/10/07 11:25:59;;;;;;;23.92;21.60;;;18.80;63.90;;;;;;4972060;28;20027;-75
2022/10/07 11:28:29;;;;;;;23.08;21.05;;;18.70;63.80;;;;;;4952126;28;20499;-76
2022/10/07 11:31:17;;;;;;;23.08;21.27;;;18.70;63.50;;;;;;4936172;28;20046;-75
2022/10/07 11:33:45;;;;;;;23.30;21.00;;;18.60;64.40;;;;;;4957130;28;20066;-76
2022/10/07 11:36:28;;;;;;;22.00;20.35;;;18.60;63.70;;;;;;4968099;28;20051;-76
2022/10/07 11:38:54;;;;;;;25.92;23.98;;;18.60;63.40;;;;;;4953737;29;20035;-76
2022/10/07 11:41:34;;;;;;;23.45;21.42;;;18.60;63.80;;;;;;4968439;28;20027;-76
2022/10/07 11:44:08;;;;;;;22.65;21.00;;;18.60;63.20;;;;;;4949389;28;20031;-76
2022/10/07 11:46:43;;;;;;;23.98;21.75;;;18.70;63.10;;;;;;4932578;28;20048;-76
2022/10/07 11:49:38;;;;;;;22.27;20.60;;;18.70;62.00;;;;;;4933316;29;20051;-76
2022/10/07 11:52:09;;;;;;;23.20;21.30;;;18.60;62.40;;;;;;4934750;29;20048;-76
2022/10/07 11:54:51;;;;;;;22.35;20.52;;;18.70;63.10;;;;;;4934092;29;20465;-76
2022/10/07 11:57:19;;;;;;;24.30;22.35;;;18.80;62.50;;;;;;4939687;28;20027;-76
2022/10/07 12:00:07;;;;;;;24.27;21.98;;;18.90;64.00;;;;;;4948271;29;20050;-76
2022/10/07 12:02:40;;;;;;;24.33;22.40;;;18.90;60.80;;;;;;4966372;28;20040;-75
2022/10/07 12:05:07;;;;;;;25.92;22.35;;;19.00;61.20;;;;;;4953310;28;20044;-76
2022/10/07 12:07:36;;;;;;;25.00;23.05;;;19.10;62.20;;;;;;4952900;28;20035;-76
2022/10/07 12:10:02;;;;;;;24.13;22.15;;;19.20;60.50;;;;;;4974277;28;20496;-75
2022/10/07 12:12:41;;;;;;;26.00;23.92;;;19.30;60.60;;;;;;4974907;28;20042;-76
2022/10/07 12:15:41;;;;;;;24.38;22.40;;;19.30;60.30;;;;;;4955555;28;20066;-76
2022/10/07 12:18:07;;;;;;;25.33;23.33;;;19.40;61.30;;;;;;4942334;29;20035;-77
2022/10/07 12:20:43;;;;;;;24.77;22.98;;;19.70;63.00;;;;;;4956388;29;20477;-76
2022/10/07 12:23:16;;;;;;;29.52;27.15;;;20.00;62.60;;;;;;4937911;29;20024;-76
2022/10/07 12:25:45;;;;;;;1999.90;999.90;;;20.30;61.30;;;;;;4937989;29;20043;-76
2022/10/07 12:28:44;;;;;;;1999.90;999.90;;;20.60;59.60;;;;;;4953663;29;20070;-76
2022/10/07 12:31:13;;;;;;;1999.90;999.90;;;20.50;57.40;;;;;;4942154;28;20047;-76
2022/10/07 12:33:43;;;;;;;1015.05;513.85;;;20.40;57.10;;;;;;4956393;29;20062;-76
2022/10/07 12:36:22;;;;;;;30.65;28.55;;;20.20;57.50;;;;;;4957201;29;20043;-76
2022/10/07 12:38:54;;;;;;;27.83;25.83;;;20.10;57.70;;;;;;4970576;28;20042;-75
2022/10/07 12:41:38;;;;;;;1507.43;756.95;;;20.10;59.60;;;;;;4956405;29;20023;-76
2022/10/07 12:44:07;;;;;;;30.73;28.40;;;20.40;56.90;;;;;;4956214;28;20038;-76
2022/10/07 12:46:49;;;;;;;29.38;27.25;;;20.10;57.10;;;;;;4956467;28;20042;-76
2022/10/07 12:49:39;;;;;;;28.83;26.83;;;20.10;57.10;;;;;;4958332;28;20047;-75
2022/10/07 12:52:21;;;;;;;30.38;27.73;;;20.10;58.60;;;;;;4952034;28;20036;-76
2022/10/07 12:54:57;;;;;;;1999.90;999.90;;;20.40;59.00;;;;;;4951903;28;20043;-75
2022/10/07 12:57:27;;;;;;;1999.90;999.90;;;20.80;58.50;;;;;;4946904;28;20581;-76